Página principal
Imagens de satélite Previsões 15 diasClimaMeteorologia maritima Ciclones Descargas eléctricas AeroportosFAQ Notícias Sobre
Tempo : Europa África América do Norte América do Sul Ásia Austrália-Oceania Outros
Línguas Contacto

Cambridge, Inglaterra

latitude: 52-12N, longitude: 000-11E, altura: 15 m


METAR: EGSC 311950Z 15012KT CAVOK 16/12 Q1014
TAF: EGSC 311703Z 3118/3121 16010KT 9999 FEW045 PROB40 3118/3121 7000 PROB30 TEMPO 3118/3121 18015G25KT

Hora: 06:30 (06:30 UTC)

Observação actual do tempo

O boletim foi feito há 10 horas e 40 minutos, às 19:50 UTC
Vento 12 kt de su-sudeste
Temperatura 16°C
Humidade 77%
Pressão 1014 hPa
Visibilidade 10 km ou mais
sem nuvens abaixo de 1500 metros e sem cumulonimbus

Mudar unidades

Previsão

O boletim foi feito há 13 horas e 27 minutos, às 17:03 UTC
Previsão válida de 31 às 18 UTC a 31 às 21 UTC
Vento 10 kt de su-sudeste
Visibilidade 10 km ou mais
Poucas nuvens a uma altura de 4500 ft
Probabilidade 40%
de 31 às 18 UTC a 31 às 21 UTC
Visibilidade: 7000 m
Probabilidade 30% :
Temporariamente
de 31 às 18 UTC a 31 às 21 UTC
Vento 15 kt de sul com rajadas de 25 kt
As informações contidas neste sítio estão sujeitas a uma declaração de exoneração de responsabilidade
Tempo : Europa África América do Norte América do Sul Ásia Austrália-Oceania Outros
Imagens de satélite Previsões 15 diasClimaMeteorologia maritima Ciclones Descargas eléctricas AeroportosFAQ Línguas Contacto Notícias Sobre